sensor_id;sensor_type;location;lat;lon;timestamp;pressure;altitude;pressure_sealevel;temperature;humidity
10881;BME280;5493;48.884;8.338;2023-04-15T00:00:56;99240.09;;;7.70;100.00
10881;BME280;5493;48.884;8.338;2023-04-15T00:03:22;99239.72;;;7.67;100.00
10881;BME280;5493;48.884;8.338;2023-04-15T00:05:49;99239.75;;;7.49;100.00
10881;BME280;5493;48.884;8.338;2023-04-15T00:08:16;99239.38;;;7.45;100.00
10881;BME280;5493;48.884;8.338;2023-04-15T00:10:42;99236.81;;;7.32;100.00
10881;BME280;5493;48.884;8.338;2023-04-15T00:13:12;99239.22;;;7.40;100.00
10881;BME280;5493;48.884;8.338;2023-04-15T00:15:39;99236.81;;;7.50;100.00
10881;BME280;5493;48.884;8.338;2023-04-15T00:18:06;99231.31;;;7.45;100.00
10881;BME280;5493;48.884;8.338;2023-04-15T00:20:33;99237.84;;;7.31;100.00
10881;BME280;5493;48.884;8.338;2023-04-15T00:23:00;99236.97;;;7.55;100.00
10881;BME280;5493;48.884;8.338;2023-04-15T00:25:28;99240.84;;;7.41;100.00
10881;BME280;5493;48.884;8.338;2023-04-15T00:27:54;99231.16;;;7.40;100.00
10881;BME280;5493;48.884;8.338;2023-04-15T00:30:22;99239.22;;;7.22;100.00
10881;BME280;5493;48.884;8.338;2023-04-15T00:32:49;99227.66;;;7.39;100.00
10881;BME280;5493;48.884;8.338;2023-04-15T00:35:17;99229.41;;;7.16;100.00
10881;BME280;5493;48.884;8.338;2023-04-15T00:37:43;99225.16;;;7.26;100.00
10881;BME280;5493;48.884;8.338;2023-04-15T00:40:11;99222.47;;;7.26;100.00
10881;BME280;5493;48.884;8.338;2023-04-15T00:42:38;99230.63;;;7.13;100.00
10881;BME280;5493;48.884;8.338;2023-04-15T00:45:05;99231.84;;;7.17;100.00
10881;BME280;5493;48.884;8.338;2023-04-15T00:47:35;99222.97;;;7.17;100.00
10881;BME280;5493;48.884;8.338;2023-04-15T00:50:02;99227.47;;;7.05;100.00
10881;BME280;5493;48.884;8.338;2023-04-15T00:52:29;99229.75;;;7.01;100.00
10881;BME280;5493;48.884;8.338;2023-04-15T00:54:56;99232.19;;;7.03;100.00
10881;BME280;5493;48.884;8.338;2023-04-15T00:57:22;99230.44;;;7.15;100.00
10881;BME280;5493;48.884;8.338;2023-04-15T00:59:49;99231.81;;;6.99;100.00
10881;BME280;5493;48.884;8.338;2023-04-15T01:02:18;99237.06;;;6.94;100.00
10881;BME280;5493;48.884;8.338;2023-04-15T01:04:46;99229.75;;;7.01;100.00
10881;BME280;5493;48.884;8.338;2023-04-15T01:07:12;99229.75;;;7.01;100.00
10881;BME280;5493;48.884;8.338;2023-04-15T01:09:39;99228.94;;;7.01;100.00
10881;BME280;5493;48.884;8.338;2023-04-15T01:12:06;99235.81;;;6.72;100.00
10881;BME280;5493;48.884;8.338;2023-04-15T01:14:35;99228.63;;;6.72;100.00
10881;BME280;5493;48.884;8.338;2023-04-15T01:17:02;99224.00;;;6.79;100.00
10881;BME280;5493;48.884;8.338;2023-04-15T01:19:28;99223.22;;;6.97;100.00
10881;BME280;5493;48.884;8.338;2023-04-15T01:21:57;99231.25;;;6.97;100.00
10881;BME280;5493;48.884;8.338;2023-04-15T01:24:25;99221.78;;;7.13;100.00
10881;BME280;5493;48.884;8.338;2023-04-15T01:26:53;99222.56;;;7.20;100.00
10881;BME280;5493;48.884;8.338;2023-04-15T01:29:20;99216.22;;;7.14;100.00
10881;BME280;5493;48.884;8.338;2023-04-15T01:31:50;99218.59;;;7.22;100.00
10881;BME280;5493;48.884;8.338;2023-04-15T01:34:18;99220.28;;;7.35;100.00
10881;BME280;5493;48.884;8.338;2023-04-15T01:36:45;99219.72;;;7.15;100.00
10881;BME280;5493;48.884;8.338;2023-04-15T01:39:11;99216.66;;;7.11;100.00
10881;BME280;5493;48.884;8.338;2023-04-15T01:41:38;99218.72;;;7.27;100.00
10881;BME280;5493;48.884;8.338;2023-04-15T01:44:06;99223.78;;;6.99;100.00
10881;BME280;5493;48.884;8.338;2023-04-15T01:46:33;99224.09;;;7.09;100.00
10881;BME280;5493;48.884;8.338;2023-04-15T01:49:00;99222.94;;;7.23;100.00
10881;BME280;5493;48.884;8.338;2023-04-15T01:51:26;99219.41;;;7.23;100.00
10881;BME280;5493;48.884;8.338;2023-04-15T01:53:53;99218.44;;;7.35;100.00
10881;BME280;5493;48.884;8.338;2023-04-15T01:56:21;99220.63;;;7.27;100.00
10881;BME280;5493;48.884;8.338;2023-04-15T01:58:48;99221.03;;;7.24;100.00
10881;BME280;5493;48.884;8.338;2023-04-15T02:01:16;99224.91;;;7.28;100.00
10881;BME280;5493;48.884;8.338;2023-04-15T02:03:44;99226.63;;;7.22;100.00
10881;BME280;5493;48.884;8.338;2023-04-15T02:06:10;99228.03;;;7.25;100.00
10881;BME280;5493;48.884;8.338;2023-04-15T02:08:37;99240.16;;;7.09;100.00
10881;BME280;5493;48.884;8.338;2023-04-15T02:11:03;99236.06;;;6.88;100.00
10881;BME280;5493;48.884;8.338;2023-04-15T02:13:30;99242.16;;;6.53;100.00
10881;BME280;5493;48.884;8.338;2023-04-15T02:15:57;99236.38;;;6.56;100.00
10881;BME280;5493;48.884;8.338;2023-04-15T02:18:26;99229.28;;;6.43;100.00
10881;BME280;5493;48.884;8.338;2023-04-15T02:20:52;99239.03;;;6.31;100.00
10881;BME280;5493;48.884;8.338;2023-04-15T02:23:18;99235.22;;;6.45;100.00
10881;BME280;5493;48.884;8.338;2023-04-15T02:25:45;99227.63;;;6.42;100.00
10881;BME280;5493;48.884;8.338;2023-04-15T02:28:11;99225.91;;;6.48;100.00
10881;BME280;5493;48.884;8.338;2023-04-15T02:30:38;99234.19;;;6.89;100.00
10881;BME280;5493;48.884;8.338;2023-04-15T02:33:05;99229.53;;;7.03;100.00
10881;BME280;5493;48.884;8.338;2023-04-15T02:35:33;99227.19;;;6.88;100.00
10881;BME280;5493;48.884;8.338;2023-04-15T02:38:03;99237.06;;;6.69;100.00
10881;BME280;5493;48.884;8.338;2023-04-15T02:40:29;99242.94;;;6.35;100.00
10881;BME280;5493;48.884;8.338;2023-04-15T02:42:56;99232.34;;;6.22;100.00
10881;BME280;5493;48.884;8.338;2023-04-15T02:45:23;99235.88;;;6.40;100.00
10881;BME280;5493;48.884;8.338;2023-04-15T02:47:52;99238.47;;;6.22;100.00
10881;BME280;5493;48.884;8.338;2023-04-15T02:50:18;99238.53;;;6.40;100.00
10881;BME280;5493;48.884;8.338;2023-04-15T02:52:46;99240.28;;;6.04;100.00
10881;BME280;5493;48.884;8.338;2023-04-15T02:55:13;99239.69;;;6.26;100.00
10881;BME280;5493;48.884;8.338;2023-04-15T02:57:39;99239.31;;;6.23;100.00
10881;BME280;5493;48.884;8.338;2023-04-15T03:00:07;99235.91;;;6.09;100.00
10881;BME280;5493;48.884;8.338;2023-04-15T03:02:35;99234.69;;;6.05;100.00
10881;BME280;5493;48.884;8.338;2023-04-15T03:05:02;99247.06;;;6.31;100.00
10881;BME280;5493;48.884;8.338;2023-04-15T03:07:30;99248.34;;;6.28;100.00
10881;BME280;5493;48.884;8.338;2023-04-15T03:09:58;99242.72;;;6.36;100.00
10881;BME280;5493;48.884;8.338;2023-04-15T03:12:24;99246.19;;;6.12;100.00
10881;BME280;5493;48.884;8.338;2023-04-15T03:14:51;99245.72;;;6.22;100.00
10881;BME280;5493;48.884;8.338;2023-04-15T03:17:17;99254.91;;;6.26;100.00
10881;BME280;5493;48.884;8.338;2023-04-15T03:19:43;99249.63;;;6.44;100.00
10881;BME280;5493;48.884;8.338;2023-04-15T03:22:10;99247.56;;;6.46;100.00
10881;BME280;5493;48.884;8.338;2023-04-15T03:24:37;99250.84;;;6.23;100.00
10881;BME280;5493;48.884;8.338;2023-04-15T03:27:05;99245.72;;;6.15;100.00
10881;BME280;5493;48.884;8.338;2023-04-15T03:29:32;99246.88;;;6.32;100.00
10881;BME280;5493;48.884;8.338;2023-04-15T03:31:58;99242.34;;;6.33;100.00
10881;BME280;5493;48.884;8.338;2023-04-15T03:34:26;99249.75;;;6.31;100.00
10881;BME280;5493;48.884;8.338;2023-04-15T03:36:52;99243.53;;;6.06;100.00
10881;BME280;5493;48.884;8.338;2023-04-15T03:39:19;99241.50;;;6.08;100.00
10881;BME280;5493;48.884;8.338;2023-04-15T03:41:45;99244.63;;;5.98;100.00
10881;BME280;5493;48.884;8.338;2023-04-15T03:44:13;99249.09;;;6.11;100.00
10881;BME280;5493;48.884;8.338;2023-04-15T03:46:40;99252.22;;;6.01;100.00
10881;BME280;5493;48.884;8.338;2023-04-15T03:49:07;99243.34;;;6.01;100.00
10881;BME280;5493;48.884;8.338;2023-04-15T03:51:33;99242.53;;;6.07;100.00
10881;BME280;5493;48.884;8.338;2023-04-15T03:54:00;99245.72;;;6.15;100.00
10881;BME280;5493;48.884;8.338;2023-04-15T03:56:27;99244.06;;;6.21;100.00
10881;BME280;5493;48.884;8.338;2023-04-15T03:58:53;99252.03;;;6.27;100.00
10881;BME280;5493;48.884;8.338;2023-04-15T04:01:21;99251.84;;;6.29;100.00
10881;BME280;5493;48.884;8.338;2023-04-15T04:03:48;99251.84;;;6.29;100.00
10881;BME280;5493;48.884;8.338;2023-04-15T04:06:15;99249.28;;;6.09;100.00
10881;BME280;5493;48.884;8.338;2023-04-15T04:08:41;99250.16;;;6.03;100.00
10881;BME280;5493;48.884;8.338;2023-04-15T04:11:08;99258.25;;;5.83;100.00
10881;BME280;5493;48.884;8.338;2023-04-15T04:13:34;99258.28;;;5.77;100.00
10881;BME280;5493;48.884;8.338;2023-04-15T04:16:01;99256.53;;;5.58;100.00
10881;BME280;5493;48.884;8.338;2023-04-15T04:18:30;99258.56;;;5.62;100.00
10881;BME280;5493;48.884;8.338;2023-04-15T04:20:56;99261.91;;;5.51;100.00
10881;BME280;5493;48.884;8.338;2023-04-15T04:23:23;99253.06;;;5.51;100.00
10881;BME280;5493;48.884;8.338;2023-04-15T04:25:50;99253.06;;;5.51;100.00
10881;BME280;5493;48.884;8.338;2023-04-15T04:28:16;99258.22;;;5.52;100.00
10881;BME280;5493;48.884;8.338;2023-04-15T04:30:43;99255.53;;;5.52;100.00
10881;BME280;5493;48.884;8.338;2023-04-15T04:33:10;99257.03;;;5.41;100.00
10881;BME280;5493;48.884;8.338;2023-04-15T04:35:38;99252.31;;;5.37;100.00
10881;BME280;5493;48.884;8.338;2023-04-15T04:38:04;99255.97;;;5.49;100.00
10881;BME280;5493;48.884;8.338;2023-04-15T04:40:31;99265.66;;;5.37;100.00
10881;BME280;5493;48.884;8.338;2023-04-15T04:42:57;99269.09;;;5.51;100.00
10881;BME280;5493;48.884;8.338;2023-04-15T04:45:24;99268.47;;;5.55;100.00
10881;BME280;5493;48.884;8.338;2023-04-15T04:47:51;99261.28;;;5.56;100.00
10881;BME280;5493;48.884;8.338;2023-04-15T04:50:37;99262.53;;;5.46;100.00
10881;BME280;5493;48.884;8.338;2023-04-15T04:53:04;99271.72;;;5.13;100.00
10881;BME280;5493;48.884;8.338;2023-04-15T04:55:30;99268.88;;;4.94;100.00
10881;BME280;5493;48.884;8.338;2023-04-15T04:57:57;99268.63;;;5.09;100.00
10881;BME280;5493;48.884;8.338;2023-04-15T05:00:23;99273.56;;;5.12;100.00
10881;BME280;5493;48.884;8.338;2023-04-15T05:02:50;99272.16;;;4.90;100.00
10881;BME280;5493;48.884;8.338;2023-04-15T05:05:16;99279.34;;;5.03;100.00
10881;BME280;5493;48.884;8.338;2023-04-15T05:07:44;99282.00;;;4.96;100.00
10881;BME280;5493;48.884;8.338;2023-04-15T05:10:11;99279.91;;;5.18;100.00
10881;BME280;5493;48.884;8.338;2023-04-15T05:12:39;99277.44;;;5.23;100.00
10881;BME280;5493;48.884;8.338;2023-04-15T05:15:07;99283.75;;;5.28;100.00
10881;BME280;5493;48.884;8.338;2023-04-15T05:17:33;99285.41;;;5.42;100.00
10881;BME280;5493;48.884;8.338;2023-04-15T05:20:00;99283.16;;;5.33;100.00
10881;BME280;5493;48.884;8.338;2023-04-15T05:22:27;99286.16;;;5.56;100.00
10881;BME280;5493;48.884;8.338;2023-04-15T05:24:54;99292.84;;;5.78;100.00
10881;BME280;5493;48.884;8.338;2023-04-15T05:27:21;99283.47;;;6.07;100.00
10881;BME280;5493;48.884;8.338;2023-04-15T05:29:48;99276.22;;;6.14;100.00
10881;BME280;5493;48.884;8.338;2023-04-15T05:32:15;99287.44;;;6.29;100.00
10881;BME280;5493;48.884;8.338;2023-04-15T05:34:41;99284.88;;;6.41;100.00
10881;BME280;5493;48.884;8.338;2023-04-15T05:37:08;99292.22;;;6.52;100.00
10881;BME280;5493;48.884;8.338;2023-04-15T05:39:34;99289.47;;;6.59;100.00
10881;BME280;5493;48.884;8.338;2023-04-15T05:42:02;99289.00;;;6.68;100.00
10881;BME280;5493;48.884;8.338;2023-04-15T05:44:30;99297.69;;;6.64;100.00
10881;BME280;5493;48.884;8.338;2023-04-15T05:46:56;99293.88;;;6.78;100.00
10881;BME280;5493;48.884;8.338;2023-04-15T05:49:23;99303.31;;;6.80;100.00
10881;BME280;5493;48.884;8.338;2023-04-15T05:51:49;99298.88;;;6.92;100.00
10881;BME280;5493;48.884;8.338;2023-04-15T05:54:16;99303.31;;;7.05;100.00
10881;BME280;5493;48.884;8.338;2023-04-15T05:56:43;99309.63;;;7.11;100.00
10881;BME280;5493;48.884;8.338;2023-04-15T05:59:11;99306.16;;;7.28;100.00
10881;BME280;5493;48.884;8.338;2023-04-15T06:01:37;99309.13;;;7.38;100.00
10881;BME280;5493;48.884;8.338;2023-04-15T06:04:04;99310.41;;;7.54;100.00
10881;BME280;5493;48.884;8.338;2023-04-15T06:06:30;99306.53;;;7.68;100.00
10881;BME280;5493;48.884;8.338;2023-04-15T06:08:57;99305.88;;;7.73;100.00
10881;BME280;5493;48.884;8.338;2023-04-15T06:11:24;99299.97;;;7.82;100.00
10881;BME280;5493;48.884;8.338;2023-04-15T06:13:51;99309.09;;;7.93;100.00
10881;BME280;5493;48.884;8.338;2023-04-15T06:16:19;99303.81;;;8.05;100.00
10881;BME280;5493;48.884;8.338;2023-04-15T06:18:46;99308.31;;;8.22;100.00
10881;BME280;5493;48.884;8.338;2023-04-15T06:21:12;99305.16;;;8.25;100.00
10881;BME280;5493;48.884;8.338;2023-04-15T06:23:39;99311.75;;;8.29;100.00
10881;BME280;5493;48.884;8.338;2023-04-15T06:26:06;99317.06;;;8.48;100.00
10881;BME280;5493;48.884;8.338;2023-04-15T06:28:32;99315.97;;;9.13;100.00
10881;BME280;5493;48.884;8.338;2023-04-15T06:30:59;99312.88;;;10.08;100.00
10881;BME280;5493;48.884;8.338;2023-04-15T06:33:27;99304.38;;;10.89;100.00
10881;BME280;5493;48.884;8.338;2023-04-15T06:35:54;99303.50;;;11.77;100.00
10881;BME280;5493;48.884;8.338;2023-04-15T06:38:20;99299.88;;;12.37;100.00
10881;BME280;5493;48.884;8.338;2023-04-15T06:40:47;99304.94;;;12.60;100.00
10881;BME280;5493;48.884;8.338;2023-04-15T06:43:13;99309.50;;;12.54;100.00
10881;BME280;5493;48.884;8.338;2023-04-15T06:45:40;99314.59;;;13.09;100.00
10881;BME280;5493;48.884;8.338;2023-04-15T06:48:06;99310.56;;;13.17;100.00
10881;BME280;5493;48.884;8.338;2023-04-15T06:50:34;99307.38;;;13.67;100.00
10881;BME280;5493;48.884;8.338;2023-04-15T06:53:00;99310.13;;;13.77;100.00
10881;BME280;5493;48.884;8.338;2023-04-15T06:55:27;99308.56;;;13.39;100.00
10881;BME280;5493;48.884;8.338;2023-04-15T06:57:53;99301.53;;;13.43;100.00
10881;BME280;5493;48.884;8.338;2023-04-15T07:00:20;99313.28;;;13.59;100.00
10881;BME280;5493;48.884;8.338;2023-04-15T07:02:47;99309.59;;;12.96;100.00
10881;BME280;5493;48.884;8.338;2023-04-15T07:05:13;99301.84;;;12.73;100.00
10881;BME280;5493;48.884;8.338;2023-04-15T07:07:41;99306.72;;;12.44;100.00
10881;BME280;5493;48.884;8.338;2023-04-15T07:10:08;99307.28;;;12.78;100.00
10881;BME280;5493;48.884;8.338;2023-04-15T07:12:36;99301.03;;;12.72;100.00
10881;BME280;5493;48.884;8.338;2023-04-15T07:15:03;99312.16;;;12.81;100.00
10881;BME280;5493;48.884;8.338;2023-04-15T07:17:30;99305.59;;;12.72;100.00
10881;BME280;5493;48.884;8.338;2023-04-15T07:19:57;99305.69;;;13.14;100.00
10881;BME280;5493;48.884;8.338;2023-04-15T07:22:23;99306.66;;;13.03;100.00
10881;BME280;5493;48.884;8.338;2023-04-15T07:24:51;99304.31;;;12.79;100.00
10881;BME280;5493;48.884;8.338;2023-04-15T07:27:18;99304.88;;;13.13;100.00
10881;BME280;5493;48.884;8.338;2023-04-15T07:29:45;99303.44;;;13.43;100.00
10881;BME280;5493;48.884;8.338;2023-04-15T07:32:11;99301.25;;;13.35;100.00
10881;BME280;5493;48.884;8.338;2023-04-15T07:34:38;99311.78;;;13.31;100.00
10881;BME280;5493;48.884;8.338;2023-04-15T07:37:05;99310.47;;;13.07;100.00
10881;BME280;5493;48.884;8.338;2023-04-15T07:39:32;99310.56;;;12.85;100.00
10881;BME280;5493;48.884;8.338;2023-04-15T07:41:59;99312.44;;;13.11;100.00
10881;BME280;5493;48.884;8.338;2023-04-15T07:44:26;99316.16;;;13.05;100.00
10881;BME280;5493;48.884;8.338;2023-04-15T07:46:52;99321.13;;;12.55;100.00
10881;BME280;5493;48.884;8.338;2023-04-15T07:49:19;99314.97;;;12.32;100.00
10881;BME280;5493;48.884;8.338;2023-04-15T07:51:46;99324.59;;;12.50;100.00
10881;BME280;5493;48.884;8.338;2023-04-15T07:54:13;99321.69;;;12.89;100.00
10881;BME280;5493;48.884;8.338;2023-04-15T07:56:39;99321.78;;;13.30;100.00
10881;BME280;5493;48.884;8.338;2023-04-15T07:59:07;99327.63;;;13.17;100.00
10881;BME280;5493;48.884;8.338;2023-04-15T08:01:34;99329.28;;;12.60;100.00
10881;BME280;5493;48.884;8.338;2023-04-15T08:04:01;99334.03;;;12.48;100.00
10881;BME280;5493;48.884;8.338;2023-04-15T08:06:29;99334.75;;;12.65;100.00
10881;BME280;5493;48.884;8.338;2023-04-15T08:08:56;99332.41;;;12.47;100.00
10881;BME280;5493;48.884;8.338;2023-04-15T08:11:22;99332.00;;;12.33;100.00
10881;BME280;5493;48.884;8.338;2023-04-15T08:13:49;99326.94;;;12.42;100.00
10881;BME280;5493;48.884;8.338;2023-04-15T08:16:19;99338.44;;;12.54;100.00
10881;BME280;5493;48.884;8.338;2023-04-15T08:18:47;99332.06;;;12.97;100.00
10881;BME280;5493;48.884;8.338;2023-04-15T08:21:14;99334.09;;;12.53;100.00
10881;BME280;5493;48.884;8.338;2023-04-15T08:23:42;99334.28;;;12.46;100.00
10881;BME280;5493;48.884;8.338;2023-04-15T08:26:08;99342.13;;;12.74;100.00
10881;BME280;5493;48.884;8.338;2023-04-15T08:28:36;99337.22;;;12.98;100.00
10881;BME280;5493;48.884;8.338;2023-04-15T08:31:03;99347.69;;;12.63;100.00
10881;BME280;5493;48.884;8.338;2023-04-15T08:33:31;99337.09;;;12.88;100.00
10881;BME280;5493;48.884;8.338;2023-04-15T08:35:58;99345.88;;;13.32;100.00
10881;BME280;5493;48.884;8.338;2023-04-15T08:38:24;99346.97;;;13.31;100.00
10881;BME280;5493;48.884;8.338;2023-04-15T08:40:50;99350.16;;;13.65;100.00
10881;BME280;5493;48.884;8.338;2023-04-15T08:43:21;99355.75;;;14.00;100.00
10881;BME280;5493;48.884;8.338;2023-04-15T08:45:51;99351.78;;;14.18;100.00
10881;BME280;5493;48.884;8.338;2023-04-15T08:48:18;99356.72;;;14.36;100.00
10881;BME280;5493;48.884;8.338;2023-04-15T08:50:47;99361.81;;;14.27;100.00
10881;BME280;5493;48.884;8.338;2023-04-15T08:53:14;99353.25;;;14.66;100.00
10881;BME280;5493;48.884;8.338;2023-04-15T08:55:42;99347.53;;;14.47;100.00
10881;BME280;5493;48.884;8.338;2023-04-15T08:58:10;99354.47;;;14.23;100.00
10881;BME280;5493;48.884;8.338;2023-04-15T09:00:37;99347.56;;;14.72;100.00
10881;BME280;5493;48.884;8.338;2023-04-15T09:03:04;99353.03;;;14.98;100.00
10881;BME280;5493;48.884;8.338;2023-04-15T09:05:32;99360.09;;;14.78;100.00
10881;BME280;5493;48.884;8.338;2023-04-15T09:08:00;99348.16;;;15.55;100.00
10881;BME280;5493;48.884;8.338;2023-04-15T09:10:27;99354.03;;;15.77;96.12
10881;BME280;5493;48.884;8.338;2023-04-15T09:12:54;99347.00;;;15.66;91.14
10881;BME280;5493;48.884;8.338;2023-04-15T09:15:20;99351.75;;;16.69;91.56
10881;BME280;5493;48.884;8.338;2023-04-15T09:17:47;99347.31;;;16.29;90.68
10881;BME280;5493;48.884;8.338;2023-04-15T09:20:15;99356.63;;;16.18;90.88
10881;BME280;5493;48.884;8.338;2023-04-15T09:22:45;99353.22;;;17.87;86.06
10881;BME280;5493;48.884;8.338;2023-04-15T09:25:28;99355.44;;;17.22;88.28
10881;BME280;5493;48.884;8.338;2023-04-15T09:27:56;99359.94;;;18.37;84.21
10881;BME280;5493;48.884;8.338;2023-04-15T09:30:23;99357.50;;;18.59;74.95
10881;BME280;5493;48.884;8.338;2023-04-15T09:32:51;99366.81;;;18.77;80.68
10881;BME280;5493;48.884;8.338;2023-04-15T09:35:17;99357.03;;;18.89;71.94
10881;BME280;5493;48.884;8.338;2023-04-15T09:37:44;99362.97;;;19.10;73.47
10881;BME280;5493;48.884;8.338;2023-04-15T09:40:11;99364.78;;;18.82;75.13
10881;BME280;5493;48.884;8.338;2023-04-15T09:45:32;99369.56;;;19.09;72.04
10881;BME280;5493;48.884;8.338;2023-04-15T09:47:59;99370.63;;;18.94;67.95
10881;BME280;5493;48.884;8.338;2023-04-15T09:50:39;99369.16;;;18.22;69.65
10881;BME280;5493;48.884;8.338;2023-04-15T09:53:08;99377.78;;;18.90;80.16
10881;BME280;5493;48.884;8.338;2023-04-15T09:55:34;99375.56;;;18.55;72.79
10881;BME280;5493;48.884;8.338;2023-04-15T09:58:01;99377.22;;;19.26;84.76
10881;BME280;5493;48.884;8.338;2023-04-15T10:00:28;99372.91;;;18.68;67.87
10881;BME280;5493;48.884;8.338;2023-04-15T10:02:56;99377.84;;;19.04;70.06
10881;BME280;5493;48.884;8.338;2023-04-15T10:05:23;99372.22;;;19.14;66.57
10881;BME280;5493;48.884;8.338;2023-04-15T10:07:50;99380.34;;;18.63;61.25
10881;BME280;5493;48.884;8.338;2023-04-15T10:10:17;99373.41;;;19.73;70.67
10881;BME280;5493;48.884;8.338;2023-04-15T10:12:44;99384.47;;;19.35;74.17
10881;BME280;5493;48.884;8.338;2023-04-15T10:15:14;99386.06;;;19.69;73.34
10881;BME280;5493;48.884;8.338;2023-04-15T10:17:43;99389.47;;;18.77;72.83
10881;BME280;5493;48.884;8.338;2023-04-15T10:20:11;99393.06;;;18.73;82.81
10881;BME280;5493;48.884;8.338;2023-04-15T10:22:39;99395.94;;;18.39;66.51
10881;BME280;5493;48.884;8.338;2023-04-15T10:25:08;99393.34;;;18.71;71.24
10881;BME280;5493;48.884;8.338;2023-04-15T10:27:35;99398.22;;;19.11;72.69
10881;BME280;5493;48.884;8.338;2023-04-15T10:30:02;99399.63;;;18.90;73.09
10881;BME280;5493;48.884;8.338;2023-04-15T10:32:29;99389.06;;;18.41;81.19
10881;BME280;5493;48.884;8.338;2023-04-15T10:34:56;99393.88;;;18.92;78.98
10881;BME280;5493;48.884;8.338;2023-04-15T10:37:33;99398.31;;;18.88;78.72
10881;BME280;5493;48.884;8.338;2023-04-15T10:40:00;99391.56;;;19.17;89.92
10881;BME280;5493;48.884;8.338;2023-04-15T10:42:33;99397.41;;;18.92;83.41
10881;BME280;5493;48.884;8.338;2023-04-15T10:44:59;99404.22;;;18.95;87.51
10881;BME280;5493;48.884;8.338;2023-04-15T10:47:26;99399.84;;;19.12;89.09
10881;BME280;5493;48.884;8.338;2023-04-15T10:49:57;99397.66;;;19.28;85.00
10881;BME280;5493;48.884;8.338;2023-04-15T10:52:27;99401.16;;;18.78;91.27
10881;BME280;5493;48.884;8.338;2023-04-15T10:55:01;99398.59;;;18.67;88.89
10881;BME280;5493;48.884;8.338;2023-04-15T10:57:33;99408.88;;;18.94;83.25
10881;BME280;5493;48.884;8.338;2023-04-15T11:00:11;99406.22;;;19.40;82.06
10881;BME280;5493;48.884;8.338;2023-04-15T11:02:39;99407.63;;;19.56;79.20
10881;BME280;5493;48.884;8.338;2023-04-15T11:05:07;99409.13;;;19.49;81.13
10881;BME280;5493;48.884;8.338;2023-04-15T11:07:39;99411.91;;;20.36;79.96
10881;BME280;5493;48.884;8.338;2023-04-15T11:13:21;99404.91;;;20.43;69.59
10881;BME280;5493;48.884;8.338;2023-04-15T11:15:49;99402.16;;;20.43;77.74
10881;BME280;5493;48.884;8.338;2023-04-15T11:18:17;99418.22;;;19.26;70.80
10881;BME280;5493;48.884;8.338;2023-04-15T11:20:46;99409.41;;;19.47;73.49
10881;BME280;5493;48.884;8.338;2023-04-15T11:23:14;99421.31;;;19.38;69.13
10881;BME280;5493;48.884;8.338;2023-04-15T11:25:41;99418.09;;;18.98;72.71
10881;BME280;5493;48.884;8.338;2023-04-15T11:28:08;99422.63;;;19.40;74.19
10881;BME280;5493;48.884;8.338;2023-04-15T11:30:35;99415.59;;;19.21;75.25
10881;BME280;5493;48.884;8.338;2023-04-15T11:33:04;99424.22;;;19.92;73.16
10881;BME280;5493;48.884;8.338;2023-04-15T11:35:31;99430.47;;;19.47;73.90
10881;BME280;5493;48.884;8.338;2023-04-15T11:37:57;99438.16;;;19.26;76.47
10881;BME280;5493;48.884;8.338;2023-04-15T11:40:27;99435.88;;;19.52;80.85
10881;BME280;5493;48.884;8.338;2023-04-15T11:43:03;99435.38;;;19.12;72.67
10881;BME280;5493;48.884;8.338;2023-04-15T11:45:30;99427.72;;;19.47;74.38
10881;BME280;5493;48.884;8.338;2023-04-15T11:48:04;99441.34;;;18.96;75.46
10881;BME280;5493;48.884;8.338;2023-04-15T11:50:31;99438.75;;;19.23;79.22
10881;BME280;5493;48.884;8.338;2023-04-15T11:52:59;99437.06;;;19.08;70.85
10881;BME280;5493;48.884;8.338;2023-04-15T11:55:28;99440.63;;;19.09;72.29
10881;BME280;5493;48.884;8.338;2023-04-15T11:58:08;99435.53;;;19.02;71.87
10881;BME280;5493;48.884;8.338;2023-04-15T12:00:35;99443.94;;;18.87;74.94
10881;BME280;5493;48.884;8.338;2023-04-15T12:03:12;99447.63;;;19.34;73.12
10881;BME280;5493;48.884;8.338;2023-04-15T12:06:07;99445.47;;;18.75;73.31
10881;BME280;5493;48.884;8.338;2023-04-15T12:09:07;99451.22;;;19.29;70.47
10881;BME280;5493;48.884;8.338;2023-04-15T12:11:38;99449.56;;;18.53;72.83
10881;BME280;5493;48.884;8.338;2023-04-15T12:14:08;99448.78;;;18.00;71.01
10881;BME280;5493;48.884;8.338;2023-04-15T12:16:39;99445.09;;;17.86;75.18
10881;BME280;5493;48.884;8.338;2023-04-15T12:19:06;99459.13;;;18.27;75.41
10881;BME280;5493;48.884;8.338;2023-04-15T12:21:36;99465.06;;;18.05;68.21
10881;BME280;5493;48.884;8.338;2023-04-15T12:24:04;99459.81;;;18.38;68.30
10881;BME280;5493;48.884;8.338;2023-04-15T12:26:35;99458.78;;;18.34;69.72
10881;BME280;5493;48.884;8.338;2023-04-15T12:29:04;99464.06;;;19.29;59.57
10881;BME280;5493;48.884;8.338;2023-04-15T12:31:34;99468.31;;;19.02;61.06
10881;BME280;5493;48.884;8.338;2023-04-15T12:34:01;99469.31;;;19.62;63.94
10881;BME280;5493;48.884;8.338;2023-04-15T12:36:28;99464.84;;;19.53;66.06
10881;BME280;5493;48.884;8.338;2023-04-15T12:39:00;99480.59;;;18.81;65.71
10881;BME280;5493;48.884;8.338;2023-04-15T12:41:27;99478.56;;;18.92;57.10
10881;BME280;5493;48.884;8.338;2023-04-15T12:43:54;99485.28;;;18.81;50.27
10881;BME280;5493;48.884;8.338;2023-04-15T12:46:21;99482.84;;;19.54;47.47
10881;BME280;5493;48.884;8.338;2023-04-15T12:48:47;99470.63;;;20.43;44.83
10881;BME280;5493;48.884;8.338;2023-04-15T12:51:14;99484.13;;;19.75;44.87
10881;BME280;5493;48.884;8.338;2023-04-15T12:53:40;99486.63;;;19.90;42.14
10881;BME280;5493;48.884;8.338;2023-04-15T12:56:07;99491.31;;;20.63;42.42
10881;BME280;5493;48.884;8.338;2023-04-15T12:58:33;99489.47;;;20.45;39.07
10881;BME280;5493;48.884;8.338;2023-04-15T13:01:01;99490.63;;;20.11;42.53
10881;BME280;5493;48.884;8.338;2023-04-15T13:03:28;99493.47;;;19.18;47.74
10881;BME280;5493;48.884;8.338;2023-04-15T13:05:54;99495.06;;;19.43;48.83
10881;BME280;5493;48.884;8.338;2023-04-15T13:08:21;99498.97;;;19.88;49.29
10881;BME280;5493;48.884;8.338;2023-04-15T13:10:48;99496.84;;;19.85;48.50
10881;BME280;5493;48.884;8.338;2023-04-15T13:13:14;99491.31;;;20.36;45.75
10881;BME280;5493;48.884;8.338;2023-04-15T13:15:41;99481.19;;;21.13;50.37
10881;BME280;5493;48.884;8.338;2023-04-15T13:18:11;99492.38;;;21.17;43.20